createdAt,value
2018-11-13T00:00:16.403Z,955.17
2018-11-13T00:01:16.384Z,955.20
2018-11-13T00:02:16.981Z,955.22
2018-11-13T00:03:16.365Z,955.22
2018-11-13T00:04:16.392Z,955.22
2018-11-13T00:05:16.348Z,955.20
2018-11-13T00:06:16.340Z,955.20
2018-11-13T00:07:16.315Z,955.19
2018-11-13T00:08:16.307Z,955.24
2018-11-13T00:09:16.304Z,955.17
2018-11-13T00:10:37.402Z,955.23
2018-11-13T00:11:16.296Z,955.23
2018-11-13T00:12:16.258Z,955.30
2018-11-13T00:13:16.247Z,955.25
2018-11-13T00:14:16.240Z,955.34
2018-11-13T00:15:16.280Z,955.36
2018-11-13T00:16:16.214Z,955.37
2018-11-13T00:17:16.197Z,955.34
2018-11-13T00:18:16.196Z,955.33
2018-11-13T00:19:16.191Z,955.31
2018-11-13T00:20:16.169Z,955.35
2018-11-13T00:21:16.182Z,955.37
2018-11-13T00:22:16.147Z,955.34
2018-11-13T00:23:25.667Z,955.37
2018-11-13T00:24:26.254Z,955.39
2018-11-13T00:26:28.379Z,955.42
2018-11-13T00:27:38.160Z,955.39
2018-11-13T00:28:39.272Z,955.45
2018-11-13T00:29:28.312Z,955.39
2018-11-13T00:30:28.199Z,955.41
2018-11-13T00:31:28.158Z,955.33
2018-11-13T00:32:28.207Z,955.32
2018-11-13T00:33:28.170Z,955.29
2018-11-13T00:34:28.249Z,955.27
2018-11-13T00:35:28.121Z,955.34
2018-11-13T00:36:28.090Z,955.33
2018-11-13T00:37:28.122Z,955.28
2018-11-13T00:38:28.069Z,955.33
2018-11-13T00:39:28.053Z,955.30
2018-11-13T00:40:28.059Z,955.29
2018-11-13T00:41:37.525Z,955.27
2018-11-13T00:42:28.070Z,955.29
2018-11-13T00:43:28.088Z,955.31
2018-11-13T00:44:28.055Z,955.31
2018-11-13T00:45:28.198Z,955.29
2018-11-13T00:46:27.988Z,955.32
2018-11-13T00:47:27.967Z,955.35
2018-11-13T00:48:28.521Z,955.36
2018-11-13T00:49:27.949Z,955.34
2018-11-13T00:50:37.446Z,955.35
2018-11-13T00:51:28.051Z,955.36
2018-11-13T00:52:27.926Z,955.39
2018-11-13T00:53:28.029Z,955.38
2018-11-13T00:54:27.944Z,955.37
2018-11-13T00:55:27.999Z,955.33
2018-11-13T00:56:37.426Z,955.40
2018-11-13T00:57:27.915Z,955.39
2018-11-13T00:58:27.897Z,955.36
2018-11-13T00:59:27.878Z,955.37
2018-11-13T01:00:36.542Z,955.38
2018-11-13T01:01:27.904Z,955.33
2018-11-13T01:02:27.842Z,955.34
2018-11-13T01:03:27.844Z,955.35
2018-11-13T01:04:27.848Z,955.38
2018-11-13T01:05:27.893Z,955.35
2018-11-13T01:06:27.775Z,955.36
2018-11-13T01:07:27.765Z,955.35
2018-11-13T01:08:27.736Z,955.35
2018-11-13T01:09:27.780Z,955.30
2018-11-13T01:10:27.742Z,955.29
2018-11-13T01:11:27.711Z,955.27
2018-11-13T01:12:27.751Z,955.32
2018-11-13T01:13:36.364Z,955.35
2018-11-13T01:14:27.747Z,955.28
2018-11-13T01:15:27.702Z,955.25
2018-11-13T01:16:27.672Z,955.29
2018-11-13T01:17:27.722Z,955.26
2018-11-13T01:18:27.668Z,955.20
2018-11-13T01:19:27.626Z,955.24
2018-11-13T01:20:27.639Z,955.18
2018-11-13T01:21:27.636Z,955.20
2018-11-13T01:22:27.619Z,955.20
2018-11-13T01:23:27.575Z,955.24
2018-11-13T01:24:27.615Z,955.25
2018-11-13T01:25:38.203Z,955.23
2018-11-13T01:26:37.580Z,955.17
2018-11-13T01:27:27.547Z,955.17
2018-11-13T01:28:27.570Z,955.15
2018-11-13T01:29:27.525Z,955.13
2018-11-13T01:30:27.542Z,955.13
2018-11-13T01:31:27.571Z,955.12
2018-11-13T01:32:37.430Z,955.13
2018-11-13T01:33:38.555Z,955.16
2018-11-13T01:34:27.495Z,955.12
2018-11-13T01:35:38.393Z,955.18
2018-11-13T01:36:27.993Z,955.14
2018-11-13T01:37:27.470Z,955.13
2018-11-13T01:38:27.518Z,955.07
2018-11-13T01:39:27.394Z,955.08
2018-11-13T01:40:27.436Z,955.09
2018-11-13T01:41:38.762Z,955.12
2018-11-13T01:42:27.360Z,955.07
2018-11-13T01:43:27.406Z,955.09
2018-11-13T01:44:27.367Z,955.10
2018-11-13T01:45:27.360Z,955.06
2018-11-13T01:46:27.303Z,955.04
2018-11-13T01:47:27.328Z,955.02
2018-11-13T01:48:27.279Z,955.07
2018-11-13T01:49:27.343Z,955.07
2018-11-13T01:50:39.512Z,955.05
2018-11-13T01:51:27.298Z,954.98
2018-11-13T01:52:27.241Z,955.04
2018-11-13T01:53:27.241Z,955.02
2018-11-13T01:54:27.279Z,954.99
2018-11-13T01:55:27.260Z,955.01
2018-11-13T01:56:27.233Z,955.04
2018-11-13T01:57:27.565Z,955.02
2018-11-13T01:58:27.159Z,955.00
2018-11-13T01:59:27.168Z,955.00
2018-11-13T02:00:27.158Z,955.01
2018-11-13T02:01:27.124Z,954.98
2018-11-13T02:02:27.134Z,954.97
2018-11-13T02:03:27.101Z,955.01
2018-11-13T02:04:27.085Z,955.01
2018-11-13T02:05:27.086Z,955.07
2018-11-13T02:06:27.082Z,955.07
2018-11-13T02:07:27.081Z,955.06
2018-11-13T02:08:27.043Z,955.08
2018-11-13T02:09:27.032Z,955.05
2018-11-13T02:10:27.023Z,955.07
2018-11-13T02:11:27.032Z,955.03
2018-11-13T02:12:27.004Z,955.01
2018-11-13T02:13:26.997Z,955.05
2018-11-13T02:14:26.992Z,955.02
2018-11-13T02:15:26.967Z,955.02
2018-11-13T02:16:26.948Z,955.05
2018-11-13T02:17:26.952Z,955.05
2018-11-13T02:18:26.930Z,955.09
2018-11-13T02:19:26.944Z,955.04
2018-11-13T02:20:26.927Z,955.04
2018-11-13T02:21:27.504Z,955.01
2018-11-13T02:22:26.888Z,955.02
2018-11-13T02:23:26.877Z,955.04
2018-11-13T02:24:26.880Z,955.02
2018-11-13T02:25:27.508Z,954.98
2018-11-13T02:26:26.852Z,955.03
2018-11-13T02:27:26.825Z,954.98
2018-11-13T02:28:26.823Z,955.00
2018-11-13T02:29:26.824Z,955.02
2018-11-13T02:30:26.794Z,954.99
2018-11-13T02:31:26.804Z,954.99
2018-11-13T02:32:26.773Z,955.01
2018-11-13T02:33:26.762Z,955.01
2018-11-13T02:34:26.748Z,955.05
2018-11-13T02:35:26.849Z,955.00
2018-11-13T02:36:26.730Z,955.02
2018-11-13T02:37:26.721Z,954.99
2018-11-13T02:38:26.705Z,954.98
2018-11-13T02:39:26.699Z,954.94
2018-11-13T02:40:26.725Z,954.97
2018-11-13T02:41:26.688Z,954.97
2018-11-13T02:42:26.695Z,954.92
2018-11-13T02:43:26.648Z,954.93
2018-11-13T02:44:26.640Z,954.94
2018-11-13T02:45:26.627Z,954.91
2018-11-13T02:46:26.607Z,954.95
2018-11-13T02:47:37.273Z,954.89
2018-11-13T02:48:26.621Z,954.89
2018-11-13T02:49:26.600Z,954.87
2018-11-13T02:50:26.623Z,954.83
2018-11-13T02:51:26.613Z,954.84
2018-11-13T02:52:26.680Z,954.87
2018-11-13T02:53:26.620Z,954.86
2018-11-13T02:54:26.522Z,954.84
2018-11-13T02:55:26.527Z,954.86
2018-11-13T02:56:36.339Z,954.89
2018-11-13T02:57:26.546Z,954.90
2018-11-13T02:58:26.533Z,954.83
2018-11-13T02:59:26.481Z,954.80
2018-11-13T03:00:26.546Z,954.74
2018-11-13T03:01:26.484Z,954.74
2018-11-13T03:02:26.569Z,954.77
2018-11-13T03:03:26.417Z,954.80
2018-11-13T03:04:26.549Z,954.76
2018-11-13T03:05:26.399Z,954.78
2018-11-13T03:06:26.383Z,954.77
2018-11-13T03:07:26.381Z,954.77
2018-11-13T03:08:36.869Z,954.72
2018-11-13T03:09:26.415Z,954.70
2018-11-13T03:10:27.298Z,954.70
2018-11-13T03:11:26.328Z,954.68
2018-11-13T03:12:26.347Z,954.69
2018-11-13T03:13:26.368Z,954.69
2018-11-13T03:14:26.473Z,954.66
2018-11-13T03:15:26.301Z,954.66
2018-11-13T03:16:26.273Z,954.65
2018-11-13T03:17:26.282Z,954.67
2018-11-13T03:18:26.253Z,954.68
2018-11-13T03:19:26.240Z,954.73
2018-11-13T03:20:26.254Z,954.69
2018-11-13T03:21:26.215Z,954.72
2018-11-13T03:22:26.202Z,954.71
2018-11-13T03:23:26.197Z,954.68
2018-11-13T03:24:26.182Z,954.71
2018-11-13T03:25:26.209Z,954.64
2018-11-13T03:26:26.157Z,954.62
2018-11-13T03:27:26.148Z,954.62
2018-11-13T03:28:26.131Z,954.61
2018-11-13T03:29:38.366Z,954.60
2018-11-13T03:30:26.718Z,954.60
2018-11-13T03:31:26.830Z,954.61
2018-11-13T03:32:34.782Z,954.61
2018-11-13T03:33:26.119Z,954.59
2018-11-13T03:34:26.166Z,954.61
2018-11-13T03:35:26.124Z,954.59
2018-11-13T03:36:26.086Z,954.59
2018-11-13T03:37:26.067Z,954.56
2018-11-13T03:38:26.069Z,954.64
2018-11-13T03:39:26.050Z,954.66
2018-11-13T03:40:26.017Z,954.62
2018-11-13T03:41:26.015Z,954.62
2018-11-13T03:42:26.026Z,954.61
2018-11-13T03:43:37.107Z,954.54
2018-11-13T03:44:25.988Z,954.54
2018-11-13T03:45:27.009Z,954.50
2018-11-13T03:46:25.974Z,954.53
2018-11-13T03:47:27.015Z,954.59
2018-11-13T03:48:25.963Z,954.54
2018-11-13T03:49:25.914Z,954.59
2018-11-13T03:50:25.924Z,954.56
2018-11-13T03:51:25.997Z,954.53
2018-11-13T03:52:25.916Z,954.61
2018-11-13T03:53:26.016Z,954.54
2018-11-13T03:54:25.839Z,954.53
2018-11-13T03:55:25.843Z,954.53
2018-11-13T03:56:34.516Z,954.53
2018-11-13T03:57:25.844Z,954.50
2018-11-13T03:58:35.917Z,954.49
2018-11-13T03:59:34.506Z,954.52
2018-11-13T04:00:38.575Z,954.54
2018-11-13T04:02:40.781Z,954.47
2018-11-13T04:03:52.336Z,954.50
2018-11-13T04:04:48.845Z,954.49
2018-11-13T04:05:40.247Z,954.44
2018-11-13T04:06:52.338Z,954.50
2018-11-13T04:07:40.157Z,954.48
2018-11-13T04:16:13.082Z,954.35
2018-11-13T04:16:57.252Z,954.39
2018-11-13T04:17:55.899Z,954.37
2018-11-13T04:18:55.783Z,954.39
2018-11-13T04:19:55.740Z,954.32
2018-11-13T04:20:55.764Z,954.39
2018-11-13T04:21:55.720Z,954.37
2018-11-13T04:22:55.711Z,954.33
2018-11-13T04:23:55.719Z,954.31
2018-11-13T04:24:55.689Z,954.28
2018-11-13T04:26:05.214Z,954.29
2018-11-13T04:27:05.201Z,954.30
2018-11-13T04:27:55.700Z,954.33
2018-11-13T04:28:55.653Z,954.35
2018-11-13T04:29:55.660Z,954.34
2018-11-13T04:30:55.712Z,954.36
2018-11-13T04:31:55.641Z,954.30
2018-11-13T04:32:55.611Z,954.36
2018-11-13T04:33:55.647Z,954.34
2018-11-13T04:35:06.860Z,954.34
2018-11-13T04:37:08.596Z,954.30
2018-11-13T04:38:18.311Z,954.34
2018-11-13T04:43:21.749Z,954.34
2018-11-13T04:43:50.503Z,954.29
2018-11-13T04:44:47.744Z,954.28
2018-11-13T04:50:39.185Z,954.37
2018-11-13T04:52:34.452Z,954.35
2018-11-13T04:53:42.914Z,954.34
2018-11-13T04:54:34.349Z,954.36
2018-11-13T04:55:43.774Z,954.33
2018-11-13T04:56:45.217Z,954.36
2018-11-13T04:58:47.957Z,954.35
2018-11-13T04:59:58.837Z,954.37
2018-11-13T05:00:47.827Z,954.40
2018-11-13T05:01:47.780Z,954.37
2018-11-13T05:03:01.700Z,954.42
2018-11-13T05:03:47.884Z,954.41
2018-11-13T05:04:57.315Z,954.42
2018-11-13T05:05:47.820Z,954.37
2018-11-13T05:06:58.328Z,954.35
2018-11-13T05:07:47.766Z,954.40
2018-11-13T05:08:57.173Z,954.41
2018-11-13T05:09:48.362Z,954.39
2018-11-13T05:11:24.516Z,954.36
2018-11-13T05:11:47.710Z,954.39
2018-11-13T05:13:01.701Z,954.38
2018-11-13T05:13:56.308Z,954.39
2018-11-13T05:14:58.770Z,954.45
2018-11-13T05:15:47.668Z,954.44
2018-11-13T05:16:57.172Z,954.43
2018-11-13T05:17:47.613Z,954.41
2018-11-13T05:18:47.604Z,954.46
2018-11-13T05:20:00.240Z,954.48
2018-11-13T05:21:58.954Z,954.49
2018-11-13T05:25:44.121Z,954.47
2018-11-13T05:26:44.798Z,954.54
2018-11-13T05:27:36.148Z,954.53
2018-11-13T05:28:46.762Z,954.54
2018-11-13T05:29:44.747Z,954.56
2018-11-13T05:31:48.484Z,954.63
2018-11-13T05:32:48.424Z,954.62
2018-11-13T05:33:58.455Z,954.62
2018-11-13T05:34:48.342Z,954.69
2018-11-13T05:35:56.989Z,954.70
2018-11-13T05:36:48.329Z,954.74
2018-11-13T05:37:56.986Z,954.80
2018-11-13T05:39:00.271Z,954.83
2018-11-13T05:39:48.261Z,954.83
2018-11-13T05:41:59.634Z,954.79
2018-11-13T05:42:59.605Z,954.78
2018-11-13T05:43:59.481Z,954.84
2018-11-13T05:44:59.471Z,954.86
2018-11-13T05:45:59.574Z,954.88
2018-11-13T05:46:59.462Z,954.94
2018-11-13T05:48:00.203Z,954.92
2018-11-13T05:48:59.482Z,954.90
2018-11-13T05:49:59.422Z,954.90
2018-11-13T05:51:08.843Z,954.92
2018-11-13T05:51:59.378Z,954.90
2018-11-13T05:52:59.389Z,954.92
2018-11-13T05:53:59.378Z,954.93
2018-11-13T05:54:59.367Z,954.92
2018-11-13T05:56:10.514Z,954.92
2018-11-13T05:56:59.383Z,954.94
2018-11-13T05:57:59.302Z,954.93
2018-11-13T05:58:59.379Z,954.92
2018-11-13T05:59:59.395Z,954.95
2018-11-13T06:00:59.298Z,954.89
2018-11-13T06:01:59.259Z,954.89
2018-11-13T06:02:59.257Z,954.93
2018-11-13T06:03:59.256Z,954.93
2018-11-13T06:05:08.817Z,954.89
2018-11-13T06:05:59.227Z,954.92
2018-11-13T06:07:07.892Z,954.95
2018-11-13T06:07:59.200Z,954.97
2018-11-13T06:09:07.825Z,954.97
2018-11-13T06:10:10.091Z,954.98
2018-11-13T06:10:59.220Z,954.98
2018-11-13T06:11:59.177Z,955.01
2018-11-13T06:12:59.260Z,955.02
2018-11-13T06:13:59.198Z,955.00
2018-11-13T06:14:59.106Z,955.03
2018-11-13T06:15:59.098Z,955.07
2018-11-13T06:16:59.080Z,955.09
2018-11-13T06:17:59.118Z,955.04
2018-11-13T06:18:59.053Z,955.09
2018-11-13T06:19:59.048Z,955.05
2018-11-13T06:20:59.041Z,955.05
2018-11-13T06:21:59.018Z,955.07
2018-11-13T06:22:59.915Z,955.11
2018-11-13T06:24:09.722Z,955.11
2018-11-13T06:24:59.012Z,955.14
2018-11-13T06:25:59.006Z,955.09
2018-11-13T06:26:58.988Z,955.16
2018-11-13T06:28:10.050Z,955.17
2018-11-13T06:28:58.958Z,955.20
2018-11-13T06:29:58.935Z,955.20
2018-11-13T06:30:59.513Z,955.27
2018-11-13T06:32:08.732Z,955.19
2018-11-13T06:33:09.778Z,955.25
2018-11-13T06:33:58.885Z,955.24
2018-11-13T06:34:58.919Z,955.23
2018-11-13T06:36:09.870Z,955.30
2018-11-13T06:37:08.393Z,955.25
2018-11-13T06:37:58.936Z,955.24
2018-11-13T06:38:58.941Z,955.27
2018-11-13T06:39:58.887Z,955.31
2018-11-13T06:41:09.604Z,955.29
2018-11-13T06:42:08.745Z,955.30
2018-11-13T06:42:58.851Z,955.27
2018-11-13T06:43:58.772Z,955.34
2018-11-13T06:44:58.823Z,955.31
2018-11-13T06:45:58.782Z,955.29
2018-11-13T06:46:58.882Z,955.38
2018-11-13T06:47:58.744Z,955.34
2018-11-13T06:48:59.254Z,955.38
2018-11-13T06:49:58.710Z,955.40
2018-11-13T06:50:58.681Z,955.42
2018-11-13T06:52:01.786Z,955.45
2018-11-13T06:52:59.659Z,955.41
2018-11-13T06:54:07.364Z,955.46
2018-11-13T06:54:58.698Z,955.45
2018-11-13T06:55:59.245Z,955.48
2018-11-13T06:56:58.693Z,955.50
2018-11-13T06:57:58.617Z,955.45
2018-11-13T06:58:58.615Z,955.50
2018-11-13T06:59:58.674Z,955.52
2018-11-13T07:01:00.801Z,955.54
2018-11-13T07:01:58.628Z,955.48
2018-11-13T07:02:58.549Z,955.53
2018-11-13T07:03:58.560Z,955.50
2018-11-13T07:04:58.568Z,955.47
2018-11-13T07:05:58.536Z,955.47
2018-11-13T07:06:58.530Z,955.50
2018-11-13T07:07:58.494Z,955.47
2018-11-13T07:09:08.073Z,955.49
2018-11-13T07:09:58.529Z,955.51
2018-11-13T07:10:58.547Z,955.49
2018-11-13T07:11:58.490Z,955.57
2018-11-13T07:12:58.526Z,955.48
2018-11-13T07:13:58.554Z,955.58
2018-11-13T07:14:58.429Z,955.60
2018-11-13T07:15:58.423Z,955.63
2018-11-13T07:16:58.406Z,955.61
2018-11-13T07:17:58.409Z,955.68
2018-11-13T07:18:58.376Z,955.62
2018-11-13T07:19:58.379Z,955.60
2018-11-13T07:20:58.372Z,955.60
2018-11-13T07:21:58.344Z,955.60
2018-11-13T07:22:58.335Z,955.58
2018-11-13T07:23:59.301Z,955.59
2018-11-13T07:24:58.325Z,955.56
2018-11-13T07:26:07.071Z,955.57
2018-11-13T07:26:59.266Z,955.57
2018-11-13T07:27:58.292Z,955.69
2018-11-13T07:28:58.340Z,955.63
2018-11-13T07:29:58.332Z,955.72
2018-11-13T07:30:58.376Z,955.71
2018-11-13T07:31:59.219Z,955.68
2018-11-13T07:32:58.261Z,955.79
2018-11-13T07:33:58.218Z,955.83
2018-11-13T07:34:58.201Z,955.89
2018-11-13T07:35:58.274Z,955.88
2018-11-13T07:36:58.181Z,955.82
2018-11-13T07:37:58.180Z,955.79
2018-11-13T07:38:58.158Z,955.89
2018-11-13T07:39:58.143Z,955.89
2018-11-13T07:40:58.179Z,955.95
2018-11-13T07:41:58.112Z,955.91
2018-11-13T07:42:58.116Z,955.89
2018-11-13T07:43:58.092Z,955.91
2018-11-13T07:44:58.085Z,955.90
2018-11-13T07:45:58.068Z,955.86
2018-11-13T07:46:58.222Z,955.84
2018-11-13T07:47:58.123Z,955.90
2018-11-13T07:48:58.047Z,955.92
2018-11-13T07:49:58.019Z,955.85
2018-11-13T07:50:58.068Z,955.84
2018-11-13T07:51:57.998Z,955.86
2018-11-13T07:52:58.044Z,955.83
2018-11-13T07:53:58.220Z,955.88
2018-11-13T07:54:57.969Z,955.87
2018-11-13T07:55:57.950Z,955.97
2018-11-13T07:56:57.945Z,955.89
2018-11-13T07:57:57.934Z,955.90
2018-11-13T07:58:57.945Z,955.95
2018-11-13T07:59:57.923Z,955.92
2018-11-13T08:00:58.770Z,955.90
2018-11-13T08:01:57.892Z,955.91
2018-11-13T08:02:57.947Z,955.90
2018-11-13T08:03:57.867Z,955.93
2018-11-13T08:04:57.864Z,955.97
2018-11-13T08:05:57.864Z,955.96
2018-11-13T08:06:57.829Z,955.93
2018-11-13T08:07:57.814Z,955.91
2018-11-13T08:08:57.860Z,955.91
2018-11-13T08:09:57.877Z,955.91
2018-11-13T08:10:57.780Z,955.95
2018-11-13T08:11:57.783Z,955.93
2018-11-13T08:12:57.855Z,955.97
2018-11-13T08:13:57.743Z,956.01
2018-11-13T08:14:57.735Z,956.06
2018-11-13T08:15:57.744Z,956.08
2018-11-13T08:16:57.717Z,956.08
2018-11-13T08:17:57.779Z,956.15
2018-11-13T08:18:57.711Z,956.14
2018-11-13T08:19:57.674Z,956.13
2018-11-13T08:20:57.724Z,956.12
2018-11-13T08:21:57.673Z,956.19
2018-11-13T08:22:57.643Z,956.20
2018-11-13T08:23:57.649Z,956.21
2018-11-13T08:24:57.613Z,956.25
2018-11-13T08:26:18.736Z,956.28
2018-11-13T08:26:57.653Z,956.32
2018-11-13T08:27:57.627Z,956.29
2018-11-13T08:28:57.689Z,956.37
2018-11-13T08:29:57.590Z,956.41
2018-11-13T08:30:57.557Z,956.39
2018-11-13T08:31:57.577Z,956.37
2018-11-13T08:32:57.524Z,956.36
2018-11-13T08:33:57.517Z,956.38
2018-11-13T08:34:57.533Z,956.33
2018-11-13T08:35:57.501Z,956.35
2018-11-13T08:36:57.488Z,956.42
2018-11-13T08:37:57.483Z,956.48
2018-11-13T08:38:57.762Z,956.44
2018-11-13T08:39:57.443Z,956.39
2018-11-13T08:40:57.476Z,956.43
2018-11-13T08:41:57.488Z,956.49
2018-11-13T08:42:57.419Z,956.50
2018-11-13T08:43:57.433Z,956.44
2018-11-13T08:44:58.261Z,956.44
2018-11-13T08:45:57.376Z,956.47
2018-11-13T08:46:57.369Z,956.51
2018-11-13T08:47:57.386Z,956.51
2018-11-13T08:48:57.344Z,956.46
2018-11-13T08:49:57.335Z,956.36
2018-11-13T08:50:57.353Z,956.29
2018-11-13T08:51:57.310Z,956.36
2018-11-13T08:52:57.309Z,956.36
2018-11-13T08:53:57.292Z,956.46
2018-11-13T08:54:57.271Z,956.49
2018-11-13T08:55:57.268Z,956.41
2018-11-13T08:56:57.255Z,956.47
2018-11-13T08:57:57.261Z,956.51
2018-11-13T08:58:57.361Z,956.53
2018-11-13T08:59:57.233Z,956.53
2018-11-13T09:00:57.202Z,956.61
2018-11-13T09:01:57.196Z,956.64
2018-11-13T09:02:57.184Z,956.78
2018-11-13T09:03:57.840Z,956.82
2018-11-13T09:04:57.178Z,956.93
2018-11-13T09:05:57.161Z,956.90
2018-11-13T09:06:57.137Z,956.90
2018-11-13T09:07:57.125Z,956.86
2018-11-13T09:08:57.108Z,956.87
2018-11-13T09:09:57.104Z,956.83
2018-11-13T09:10:57.086Z,956.87
2018-11-13T09:11:57.292Z,956.93
2018-11-13T09:12:57.770Z,957.00
2018-11-13T09:13:57.065Z,957.02
2018-11-13T09:14:57.051Z,957.07
2018-11-13T09:15:57.031Z,957.15
2018-11-13T09:16:57.019Z,957.18
2018-11-13T09:17:57.114Z,957.19
2018-11-13T09:18:57.064Z,957.17
2018-11-13T09:19:57.015Z,957.18
2018-11-13T09:20:56.976Z,957.13
2018-11-13T09:21:56.960Z,957.09
2018-11-13T09:22:56.953Z,957.07
2018-11-13T09:23:56.953Z,957.03
2018-11-13T09:24:56.936Z,956.98
2018-11-13T09:25:56.938Z,956.96
2018-11-13T09:26:56.911Z,956.97
2018-11-13T09:27:56.895Z,957.00
2018-11-13T09:29:08.795Z,957.00
2018-11-13T09:29:56.991Z,956.98
2018-11-13T09:30:57.272Z,956.97
2018-11-13T09:31:57.026Z,956.94
2018-11-13T09:32:57.812Z,956.99
2018-11-13T09:33:56.849Z,957.03
2018-11-13T09:34:56.849Z,957.11
2018-11-13T09:35:56.827Z,957.14
2018-11-13T09:36:56.868Z,957.11
2018-11-13T09:37:56.818Z,957.16
2018-11-13T09:38:56.844Z,957.24
2018-11-13T09:39:56.831Z,957.23
2018-11-13T09:40:56.834Z,957.19
2018-11-13T09:41:56.800Z,957.21
2018-11-13T09:42:56.785Z,957.21
2018-11-13T09:43:56.728Z,957.28
2018-11-13T09:44:56.828Z,957.32
2018-11-13T09:45:56.839Z,957.39
2018-11-13T09:46:56.790Z,957.37
2018-11-13T09:47:56.703Z,957.41
2018-11-13T09:48:56.712Z,957.43
2018-11-13T09:49:56.700Z,957.43
2018-11-13T09:50:56.688Z,957.49
2018-11-13T09:51:56.636Z,957.45
2018-11-13T09:52:56.691Z,957.50
2018-11-13T09:53:56.628Z,957.51
2018-11-13T09:54:56.720Z,957.49
2018-11-13T09:55:56.605Z,957.51
2018-11-13T09:56:56.585Z,957.55
2018-11-13T09:57:56.615Z,957.54
2018-11-13T09:58:57.329Z,957.49
2018-11-13T09:59:58.349Z,957.46
2018-11-13T10:00:56.843Z,957.46
2018-11-13T10:01:57.005Z,957.53
2018-11-13T10:02:58.157Z,957.60
2018-11-13T10:03:57.228Z,957.65
2018-11-13T10:04:57.219Z,957.63
2018-11-13T10:05:56.532Z,957.68
2018-11-13T10:06:56.553Z,957.68
2018-11-13T10:07:56.443Z,957.67
2018-11-13T10:08:56.488Z,957.70
2018-11-13T10:09:56.428Z,957.72
2018-11-13T10:10:56.412Z,957.70
2018-11-13T10:11:56.401Z,957.68
2018-11-13T10:12:56.383Z,957.65
2018-11-13T10:14:07.093Z,957.68
2018-11-13T10:14:56.443Z,957.68
2018-11-13T10:15:56.420Z,957.66
2018-11-13T10:17:06.498Z,957.67
2018-11-13T10:17:56.643Z,957.64
2018-11-13T10:18:56.390Z,957.58
2018-11-13T10:19:56.393Z,957.60
2018-11-13T10:20:56.853Z,957.60
2018-11-13T10:21:56.337Z,957.50
2018-11-13T10:22:56.274Z,957.53
2018-11-13T10:23:56.273Z,957.47
2018-11-13T10:24:56.275Z,957.40
2018-11-13T10:25:56.261Z,957.49
2018-11-13T10:26:56.276Z,957.41
2018-11-13T10:27:56.266Z,957.28
2018-11-13T10:28:56.208Z,957.39
2018-11-13T10:29:56.238Z,957.36
2018-11-13T10:30:56.208Z,957.48
2018-11-13T10:31:56.180Z,957.46
2018-11-13T10:32:56.171Z,957.39
2018-11-13T10:33:56.154Z,957.39
2018-11-13T10:34:56.144Z,957.48
2018-11-13T10:35:56.126Z,957.62
2018-11-13T10:36:56.138Z,957.57
2018-11-13T10:37:56.107Z,957.62
2018-11-13T10:38:56.119Z,957.62
2018-11-13T10:39:56.132Z,957.53
2018-11-13T10:40:56.162Z,957.54
2018-11-13T10:41:56.086Z,957.61
2018-11-13T10:42:56.152Z,957.55
2018-11-13T10:43:56.031Z,957.53
2018-11-13T10:44:56.052Z,957.53
2018-11-13T10:45:56.007Z,957.54
2018-11-13T10:46:55.997Z,957.56
2018-11-13T10:47:56.011Z,957.54
2018-11-13T10:48:56.006Z,957.52
2018-11-13T10:49:55.967Z,957.49
2018-11-13T10:50:56.029Z,957.45
2018-11-13T10:51:55.962Z,957.47
2018-11-13T10:54:09.339Z,957.45
2018-11-13T10:55:09.324Z,957.52
2018-11-13T10:56:09.229Z,957.59
2018-11-13T10:57:20.860Z,957.55
2018-11-13T10:58:09.230Z,957.55
2018-11-13T10:59:18.698Z,957.53
2018-11-13T11:00:09.252Z,957.58
2018-11-13T11:01:09.211Z,957.55
2018-11-13T11:02:09.264Z,957.54
2018-11-13T11:03:09.287Z,957.57
2018-11-13T11:04:09.151Z,957.52
2018-11-13T11:05:09.093Z,957.49
2018-11-13T11:06:09.079Z,957.54
2018-11-13T11:07:09.119Z,957.57
2018-11-13T11:08:09.081Z,957.54
2018-11-13T11:09:20.009Z,957.61
2018-11-13T11:10:09.060Z,957.56
2018-11-13T11:11:09.051Z,957.51
2018-11-13T11:12:09.201Z,957.42
2018-11-13T11:13:09.135Z,957.45
2018-11-13T11:14:09.031Z,957.40
2018-11-13T11:15:09.011Z,957.45
2018-11-13T11:16:09.932Z,957.44
2018-11-13T11:17:09.521Z,957.48
2018-11-13T11:18:18.532Z,957.51
2018-11-13T11:19:09.083Z,957.51
2018-11-13T11:20:08.987Z,957.52
2018-11-13T11:21:08.993Z,957.55
2018-11-13T11:22:08.946Z,957.55
2018-11-13T11:23:08.971Z,957.56
2018-11-13T11:24:09.002Z,957.54
2018-11-13T11:25:08.912Z,957.51
2018-11-13T11:26:18.929Z,957.48
2018-11-13T11:27:08.889Z,957.50
2018-11-13T11:28:08.933Z,957.47
2018-11-13T11:29:08.892Z,957.48
2018-11-13T11:30:08.892Z,957.41
2018-11-13T11:31:08.925Z,957.45
2018-11-13T11:32:08.810Z,957.41
2018-11-13T11:33:19.671Z,957.46
2018-11-13T11:35:23.269Z,957.50
2018-11-13T11:36:23.267Z,957.52
2018-11-13T11:37:23.219Z,957.41
2018-11-13T11:38:33.961Z,957.30
2018-11-13T11:39:32.646Z,957.28
2018-11-13T11:40:23.191Z,957.19
2018-11-13T11:42:34.458Z,957.42
2018-11-13T11:43:34.431Z,957.37
2018-11-13T11:44:34.438Z,957.40
2018-11-13T11:45:34.411Z,957.52
2018-11-13T11:46:45.265Z,957.61
2018-11-13T11:48:46.797Z,957.69
2018-11-13T11:49:46.686Z,957.75
2018-11-13T11:50:55.305Z,957.76
2018-11-13T11:51:46.630Z,957.78
2018-11-13T11:52:57.254Z,957.78
2018-11-13T11:53:46.649Z,957.76
2018-11-13T11:54:46.561Z,957.74
2018-11-13T11:55:46.582Z,957.67
2018-11-13T11:56:46.576Z,957.74
2018-11-13T11:57:46.664Z,957.77
2018-11-13T11:58:46.536Z,957.78
2018-11-13T11:59:59.003Z,957.88
2018-11-13T12:00:46.717Z,957.84
2018-11-13T12:01:46.518Z,957.82
2018-11-13T12:02:46.584Z,957.81
2018-11-13T12:03:46.528Z,957.82
2018-11-13T12:04:46.594Z,957.75
2018-11-13T12:05:46.453Z,957.77
2018-11-13T12:06:46.406Z,957.82
2018-11-13T12:07:46.413Z,957.78
2018-11-13T12:09:04.046Z,957.87
2018-11-13T12:09:47.861Z,957.90
2018-11-13T12:10:46.400Z,957.93
2018-11-13T12:11:46.374Z,957.90
2018-11-13T12:12:46.395Z,957.95
2018-11-13T12:13:46.379Z,957.95
2018-11-13T12:14:46.469Z,958.00
2018-11-13T12:15:46.333Z,958.00
2018-11-13T12:16:46.296Z,957.96
2018-11-13T12:17:46.298Z,958.02
2018-11-13T12:18:46.320Z,957.90
2018-11-13T12:19:46.262Z,957.93
2018-11-13T12:20:46.275Z,957.89
2018-11-13T12:21:55.796Z,957.92
2018-11-13T12:22:46.306Z,957.94
2018-11-13T12:23:46.267Z,957.90
2018-11-13T12:24:56.126Z,957.90
2018-11-13T12:25:46.309Z,957.92
2018-11-13T12:26:54.979Z,957.97
2018-11-13T12:27:55.835Z,957.95
2018-11-13T12:28:46.185Z,958.07
2018-11-13T12:29:56.038Z,958.03
2018-11-13T12:30:58.618Z,958.02
2018-11-13T12:31:46.201Z,958.06
2018-11-13T12:32:46.198Z,958.12
2018-11-13T12:33:46.158Z,958.15
2018-11-13T12:34:46.230Z,958.09
2018-11-13T12:35:55.643Z,958.05
2018-11-13T12:36:54.741Z,958.10
2018-11-13T12:37:46.082Z,958.04
2018-11-13T12:38:55.633Z,958.00
2018-11-13T12:39:46.109Z,957.99
2018-11-13T12:40:46.106Z,958.07
2018-11-13T12:41:55.615Z,958.08
2018-11-13T12:42:54.701Z,958.09
2018-11-13T12:43:54.660Z,958.12
2018-11-13T12:44:55.516Z,958.05
2018-11-13T12:45:46.064Z,958.02
2018-11-13T12:46:55.897Z,958.01
2018-11-13T12:47:54.610Z,958.04
2018-11-13T12:48:46.060Z,958.12
2018-11-13T12:49:54.603Z,958.19
2018-11-13T12:51:57.611Z,958.27
2018-11-13T12:52:57.476Z,958.33
2018-11-13T12:54:06.945Z,958.31
2018-11-13T12:54:57.457Z,958.33
2018-11-13T12:56:09.259Z,958.32
2018-11-13T12:56:57.423Z,958.29
2018-11-13T12:58:06.977Z,958.30
2018-11-13T12:58:57.417Z,958.33
2018-11-13T12:59:57.369Z,958.35
2018-11-13T13:01:06.841Z,958.27
2018-11-13T13:01:57.423Z,958.24